Time;durP1;ratioP1;P1;durP2;ratioP2;P2;SDS_P1;SDS_P2;PMS_P1;PMS_P2;Temp;Humidity;BMP_temperature;BMP_pressure;BME280_temperature;BME280_humidity;BME280_pressure;Samples;Min_cycle;Max_cycle;Signal;HPM_P1;HPM_P2
2021/10/08 00:00:58;;;;;;;9.70;2.35;;;13.10;99.90;;;;;;6182102;23;20501;-87
2021/10/08 00:03:24;;;;;;;9.52;2.35;;;13.00;99.90;;;;;;6182283;23;20076;-87
2021/10/08 00:05:49;;;;;;;8.18;2.38;;;13.00;99.90;;;;;;6182268;23;20020;-88
2021/10/08 00:08:15;;;;;;;6.25;1.40;;;13.00;99.90;;;;;;6182251;23;20071;-88
2021/10/08 00:10:41;;;;;;;6.07;2.08;;;13.00;99.90;;;;;;6155962;23;20001;-87
2021/10/08 00:13:07;;;;;;;9.50;2.60;;;12.90;99.90;;;;;;6182227;23;20020;-88
2021/10/08 00:15:32;;;;;;;5.55;1.90;;;12.90;99.90;;;;;;6155786;23;20001;-88
2021/10/08 00:17:58;;;;;;;5.55;1.75;;;12.90;99.90;;;;;;6182066;23;20027;-89
2021/10/08 00:20:23;;;;;;;9.00;2.40;;;12.90;99.90;;;;;;6155695;23;20101;-91
2021/10/08 00:22:49;;;;;;;6.93;1.90;;;12.90;99.90;;;;;;6182006;23;20431;-90
2021/10/08 00:25:15;;;;;;;5.32;1.67;;;12.90;99.90;;;;;;6182213;23;20001;-88
2021/10/08 00:27:40;;;;;;;8.23;2.90;;;12.80;99.90;;;;;;6155683;23;20064;-89
2021/10/08 00:30:06;;;;;;;8.63;2.22;;;12.90;99.90;;;;;;6182078;23;20001;-88
2021/10/08 00:32:32;;;;;;;7.78;2.65;;;12.80;99.90;;;;;;6155679;23;20005;-88
2021/10/08 00:34:58;;;;;;;6.90;2.00;;;12.80;99.90;;;;;;6181639;23;20015;-90
2021/10/08 00:37:23;;;;;;;8.38;2.47;;;12.70;99.90;;;;;;6182179;23;20001;-88
2021/10/08 00:39:49;;;;;;;9.88;2.15;;;12.70;99.90;;;;;;6181820;23;20550;-87
2021/10/08 00:42:20;;;;;;;6.75;2.33;;;12.70;99.90;;;;;;6182046;23;20307;-88
2021/10/08 00:44:46;;;;;;;4.50;1.80;;;12.70;99.90;;;;;;6155535;23;20017;-88
2021/10/08 00:47:13;;;;;;;9.25;2.25;;;12.70;99.90;;;;;;6155634;23;20029;-89
2021/10/08 00:49:39;;;;;;;7.38;2.25;;;12.70;99.90;;;;;;6182123;23;20024;-90
2021/10/08 00:52:04;;;;;;;5.45;2.10;;;12.70;99.90;;;;;;6182050;23;19997;-88
2021/10/08 00:54:30;;;;;;;7.10;2.58;;;12.70;99.90;;;;;;6182350;23;20064;-92
2021/10/08 00:56:58;;;;;;;5.85;2.00;;;12.70;99.90;;;;;;6184157;23;20386;-89
2021/10/08 00:59:26;;;;;;;5.18;1.90;;;12.60;99.90;;;;;;6157385;23;20009;-89
2021/10/08 01:01:52;;;;;;;10.20;2.60;;;12.70;99.90;;;;;;6157250;23;20405;-88
2021/10/08 01:04:18;;;;;;;9.32;2.42;;;12.60;99.90;;;;;;6159879;23;20005;-88
2021/10/08 01:06:44;;;;;;;7.97;2.30;;;12.70;99.90;;;;;;6166110;23;20016;-87
2021/10/08 01:09:10;;;;;;;6.30;2.15;;;12.60;99.90;;;;;;6186316;23;20024;-89
2021/10/08 01:11:36;;;;;;;8.63;2.50;;;12.60;99.90;;;;;;6183951;23;20028;-88
2021/10/08 01:14:03;;;;;;;7.13;2.08;;;12.60;99.90;;;;;;6183698;23;20037;-89
2021/10/08 01:16:29;;;;;;;9.52;3.00;;;12.60;99.90;;;;;;6184202;23;20494;-89
2021/10/08 01:18:54;;;;;;;9.63;2.42;;;12.60;99.90;;;;;;6183781;23;20016;-88
2021/10/08 01:21:20;;;;;;;9.30;2.28;;;12.60;99.90;;;;;;6184413;23;20001;-89
2021/10/08 01:23:46;;;;;;;5.10;1.75;;;12.60;99.90;;;;;;6183955;23;20016;-88
2021/10/08 01:26:12;;;;;;;7.07;2.22;;;12.60;99.90;;;;;;6157449;23;20366;-88
2021/10/08 01:28:38;;;;;;;7.90;2.60;;;12.50;99.90;;;;;;6157431;23;20386;-89
2021/10/08 01:31:06;;;;;;;13.15;2.70;;;12.60;99.90;;;;;;6183619;23;19997;-88
2021/10/08 01:33:32;;;;;;;6.38;2.00;;;12.60;99.90;;;;;;6183408;23;20612;-88
2021/10/08 01:35:58;;;;;;;7.15;2.03;;;12.60;99.90;;;;;;6183755;23;20058;-87
2021/10/08 01:38:24;;;;;;;8.57;2.65;;;12.60;99.90;;;;;;6183497;23;20388;-88
2021/10/08 01:40:49;;;;;;;12.05;2.20;;;12.50;99.90;;;;;;6183934;23;20004;-88
2021/10/08 01:43:15;;;;;;;9.38;2.20;;;12.50;99.90;;;;;;6184753;23;20109;-88
2021/10/08 01:45:41;;;;;;;8.18;2.75;;;12.50;99.90;;;;;;6159506;23;20005;-89
2021/10/08 01:48:07;;;;;;;10.90;2.42;;;12.50;99.90;;;;;;6183058;23;20013;-89
2021/10/08 01:50:34;;;;;;;9.68;2.42;;;12.50;99.90;;;;;;6157141;23;20077;-89
2021/10/08 01:52:59;;;;;;;5.15;1.70;;;12.50;99.90;;;;;;6183398;23;20380;-87
2021/10/08 01:55:25;;;;;;;8.77;2.42;;;12.50;99.90;;;;;;6183473;23;20009;-88
2021/10/08 01:57:51;;;;;;;8.93;2.17;;;12.50;99.90;;;;;;6183772;23;20338;-89
2021/10/08 02:00:17;;;;;;;7.88;2.47;;;12.50;99.90;;;;;;6183440;23;20119;-88
2021/10/08 02:02:43;;;;;;;9.93;1.90;;;12.50;99.90;;;;;;6183278;23;20049;-88
2021/10/08 02:05:10;;;;;;;6.68;1.98;;;12.50;99.90;;;;;;6183086;23;20385;-89
2021/10/08 02:07:35;;;;;;;6.53;1.75;;;12.50;99.90;;;;;;6182418;23;20403;-89
2021/10/08 02:10:02;;;;;;;5.03;1.52;;;12.50;99.90;;;;;;6183322;23;20061;-88
2021/10/08 02:12:28;;;;;;;8.13;2.28;;;12.50;99.90;;;;;;6183232;23;20004;-92
2021/10/08 02:14:53;;;;;;;5.55;1.63;;;12.40;99.90;;;;;;6156489;23;20005;-88
2021/10/08 02:17:19;;;;;;;7.95;1.92;;;12.40;99.90;;;;;;6183392;23;20001;-89
2021/10/08 02:19:45;;;;;;;7.47;1.80;;;12.40;99.90;;;;;;6157020;23;20055;-88
2021/10/08 02:22:11;;;;;;;8.10;1.65;;;12.40;99.90;;;;;;6183058;23;20534;-88
2021/10/08 02:24:36;;;;;;;6.47;1.77;;;12.40;99.90;;;;;;6183058;23;20003;-88
2021/10/08 02:27:02;;;;;;;3.55;1.23;;;12.40;99.90;;;;;;6183117;23;20334;-88
2021/10/08 02:29:29;;;;;;;4.75;1.60;;;12.40;99.90;;;;;;6156669;23;20027;-89
2021/10/08 02:31:55;;;;;;;5.35;1.70;;;12.40;99.90;;;;;;6183038;23;20043;-88
2021/10/08 02:34:21;;;;;;;8.73;1.90;;;12.30;99.90;;;;;;6183006;23;20346;-88
2021/10/08 02:36:46;;;;;;;10.43;1.80;;;12.30;99.90;;;;;;6182880;23;20209;-88
2021/10/08 02:39:12;;;;;;;7.70;1.90;;;12.30;99.90;;;;;;6182457;23;20577;-88
2021/10/08 02:41:38;;;;;;;6.20;1.55;;;12.30;99.90;;;;;;6182828;23;20007;-88
2021/10/08 02:44:04;;;;;;;4.57;1.40;;;12.30;99.90;;;;;;6156356;23;20084;-88
2021/10/08 02:46:30;;;;;;;5.95;1.63;;;12.20;99.90;;;;;;6156471;23;20000;-88
2021/10/08 02:48:56;;;;;;;8.20;1.85;;;12.20;99.90;;;;;;6131670;23;20025;-88
2021/10/08 02:51:21;;;;;;;9.27;2.45;;;12.20;99.90;;;;;;6182877;23;20418;-89
2021/10/08 02:53:47;;;;;;;7.97;2.15;;;12.20;99.90;;;;;;6156240;23;20013;-88
2021/10/08 02:56:13;;;;;;;9.05;1.90;;;12.20;99.90;;;;;;6183123;23;20050;-89
2021/10/08 02:58:38;;;;;;;6.00;2.00;;;12.10;99.90;;;;;;6183002;23;20469;-89
2021/10/08 03:01:04;;;;;;;5.40;1.60;;;12.10;99.90;;;;;;6182560;23;19997;-88
2021/10/08 03:03:30;;;;;;;6.45;1.65;;;12.10;99.90;;;;;;6182748;23;20007;-89
2021/10/08 03:05:56;;;;;;;10.43;2.20;;;12.10;99.90;;;;;;6183025;23;20423;-88
2021/10/08 03:08:22;;;;;;;7.25;1.63;;;12.10;99.90;;;;;;6156232;23;20031;-88
2021/10/08 03:10:48;;;;;;;6.97;1.90;;;12.10;99.90;;;;;;6183021;23;20047;-88
2021/10/08 03:13:13;;;;;;;8.93;2.45;;;12.00;99.90;;;;;;6182567;23;20013;-88
2021/10/08 03:15:39;;;;;;;6.07;1.88;;;12.00;99.90;;;;;;6182494;23;20083;-88
2021/10/08 03:18:05;;;;;;;5.55;1.80;;;12.00;99.90;;;;;;6155908;23;20005;-88
2021/10/08 03:20:32;;;;;;;6.72;2.13;;;12.00;99.90;;;;;;6182922;23;19997;-90
2021/10/08 03:22:57;;;;;;;8.05;1.80;;;11.90;99.90;;;;;;6182393;23;19997;-89
2021/10/08 03:25:23;;;;;;;7.28;1.85;;;11.90;99.90;;;;;;6182809;23;20056;-88
2021/10/08 03:27:49;;;;;;;6.68;1.90;;;11.90;99.90;;;;;;6182650;23;20001;-90
2021/10/08 03:30:15;;;;;;;6.40;1.52;;;11.90;99.90;;;;;;6182327;23;20039;-88
2021/10/08 03:32:42;;;;;;;4.88;1.80;;;11.80;99.90;;;;;;6182268;23;20001;-89
2021/10/08 03:35:08;;;;;;;7.47;2.38;;;11.80;99.90;;;;;;6182046;23;20371;-94
2021/10/08 03:40:11;;;;;;;6.38;1.92;;;11.80;99.90;;;;;;6182597;23;20545;-89
2021/10/08 03:42:37;;;;;;;5.78;1.67;;;11.80;99.90;;;;;;6182594;23;20482;-91
2021/10/08 03:45:10;;;;;;;11.18;1.90;;;11.80;99.90;;;;;;6182409;23;20001;-87
2021/10/08 03:48:20;;;;;;;4.28;1.88;;;11.80;99.90;;;;;;6132687;23;20390;-89
2021/10/08 03:50:28;;;;;;;8.98;1.95;;;11.70;99.90;;;;;;6177618;23;19997;-90
2021/10/08 03:52:54;;;;;;;6.85;1.70;;;11.70;99.90;;;;;;6182495;23;20009;-88
2021/10/08 03:55:20;;;;;;;7.85;1.90;;;11.70;99.90;;;;;;6182336;23;20005;-88
2021/10/08 03:57:46;;;;;;;5.75;1.80;;;11.60;99.90;;;;;;6182635;23;20075;-88
2021/10/08 04:00:12;;;;;;;7.97;1.92;;;11.60;99.90;;;;;;6182793;23;20076;-88
2021/10/08 04:02:38;;;;;;;9.27;1.65;;;11.70;99.90;;;;;;6182451;23;20001;-89
2021/10/08 04:05:04;;;;;;;9.20;2.00;;;11.60;99.90;;;;;;6156032;23;20307;-88
2021/10/08 04:07:29;;;;;;;6.05;1.88;;;11.60;99.90;;;;;;6155994;23;20044;-88
2021/10/08 04:09:55;;;;;;;10.95;2.17;;;11.60;99.90;;;;;;6181986;23;20009;-91
2021/10/08 04:12:21;;;;;;;9.45;2.20;;;11.50;99.90;;;;;;6182408;23;20001;-88
2021/10/08 04:14:46;;;;;;;5.88;1.90;;;11.50;99.90;;;;;;6182619;23;20005;-88
2021/10/08 04:17:12;;;;;;;7.47;1.80;;;11.50;99.90;;;;;;6182589;23;20053;-92
2021/10/08 04:19:38;;;;;;;3.83;1.70;;;11.50;99.90;;;;;;6159943;23;20084;-93
2021/10/08 04:22:03;;;;;;;11.15;2.22;;;11.50;99.90;;;;;;6187606;23;20048;-89
2021/10/08 04:24:29;;;;;;;6.95;2.15;;;11.50;99.90;;;;;;6187136;23;20001;-88
2021/10/08 04:26:55;;;;;;;6.55;2.17;;;11.50;99.90;;;;;;6160412;23;20013;-88
2021/10/08 04:29:20;;;;;;;6.13;1.80;;;11.40;99.90;;;;;;6188215;23;20064;-88
2021/10/08 04:31:46;;;;;;;7.15;2.03;;;11.40;99.90;;;;;;6199114;23;20005;-88
2021/10/08 04:34:12;;;;;;;6.38;1.55;;;11.40;99.90;;;;;;6209492;23;20021;-89
2021/10/08 04:36:40;;;;;;;8.05;2.10;;;11.40;99.90;;;;;;6210859;23;20157;-89
2021/10/08 04:39:06;;;;;;;5.30;2.15;;;11.40;99.90;;;;;;6182749;23;20005;-89
2021/10/08 04:41:32;;;;;;;8.13;1.88;;;11.40;99.90;;;;;;6208835;23;20028;-89
2021/10/08 04:43:58;;;;;;;3.88;2.03;;;11.40;99.90;;;;;;6184757;23;20001;-88
2021/10/08 04:46:24;;;;;;;6.95;2.17;;;11.40;99.90;;;;;;6183841;23;20011;-88
2021/10/08 04:48:49;;;;;;;10.65;2.53;;;11.40;99.90;;;;;;6184029;23;20009;-88
2021/10/08 04:51:15;;;;;;;10.00;2.05;;;11.30;99.90;;;;;;6184463;23;20434;-88
2021/10/08 04:53:40;;;;;;;7.88;2.00;;;11.30;99.90;;;;;;6184043;23;20442;-89
2021/10/08 04:56:06;;;;;;;9.85;2.13;;;11.30;99.90;;;;;;6183548;23;20052;-89
2021/10/08 04:58:32;;;;;;;8.38;2.10;;;11.30;99.90;;;;;;6157673;23;20032;-89
2021/10/08 05:00:57;;;;;;;7.25;2.40;;;11.30;99.90;;;;;;6184021;23;20004;-88
2021/10/08 05:03:23;;;;;;;7.22;2.25;;;11.30;99.90;;;;;;6184256;23;20008;-88
2021/10/08 05:05:51;;;;;;;5.10;2.40;;;11.30;99.90;;;;;;6184084;23;20008;-90
2021/10/08 05:08:18;;;;;;;9.30;2.40;;;11.30;99.90;;;;;;6157751;23;20005;-90
2021/10/08 05:10:44;;;;;;;5.03;2.40;;;11.30;99.90;;;;;;6157358;23;20028;-90
2021/10/08 05:13:10;;;;;;;9.07;2.90;;;11.30;99.90;;;;;;6183831;23;20381;-89
2021/10/08 05:15:36;;;;;;;8.82;2.65;;;11.30;99.90;;;;;;6157529;23;20005;-89
2021/10/08 05:18:02;;;;;;;9.32;3.30;;;11.30;99.90;;;;;;6157527;23;20084;-87
2021/10/08 05:20:28;;;;;;;6.85;2.83;;;11.30;99.90;;;;;;6157669;23;20009;-89
2021/10/08 05:22:54;;;;;;;7.35;2.60;;;11.30;99.90;;;;;;6184010;23;20250;-90
2021/10/08 05:25:20;;;;;;;8.35;2.90;;;11.30;99.90;;;;;;6157536;23;20262;-90
2021/10/08 05:27:45;;;;;;;7.97;2.70;;;11.30;99.90;;;;;;6184272;23;20028;-91
2021/10/08 05:30:13;;;;;;;6.95;2.70;;;11.20;99.90;;;;;;6183996;23;19997;-92
2021/10/08 05:32:39;;;;;;;10.18;2.72;;;11.20;99.90;;;;;;6157210;23;20009;-92
2021/10/08 05:35:07;;;;;;;6.10;2.70;;;11.20;99.90;;;;;;6157931;23;20032;-92
2021/10/08 05:37:33;;;;;;;8.68;3.00;;;11.20;99.90;;;;;;6158322;23;20189;-92
2021/10/08 05:39:58;;;;;;;9.35;3.40;;;11.10;99.90;;;;;;6183871;23;19997;-92
2021/10/08 05:42:24;;;;;;;10.52;4.47;;;11.10;99.90;;;;;;6158296;23;21053;-86
2021/10/08 05:44:50;;;;;;;6.88;3.13;;;11.10;99.90;;;;;;6183440;23;20028;-87
2021/10/08 05:47:15;;;;;;;15.70;3.45;;;11.10;99.90;;;;;;6183155;23;19997;-86
2021/10/08 05:49:41;;;;;;;10.75;3.20;;;11.10;99.90;;;;;;6183179;23;20020;-87
2021/10/08 05:52:07;;;;;;;8.88;3.53;;;11.00;99.90;;;;;;6183444;23;20051;-86
2021/10/08 05:54:33;;;;;;;12.10;3.47;;;11.00;99.90;;;;;;6183275;23;20015;-86
2021/10/08 05:56:58;;;;;;;12.38;3.30;;;11.00;99.90;;;;;;6183325;23;20434;-87
2021/10/08 05:59:24;;;;;;;12.90;3.70;;;10.90;99.90;;;;;;6183427;23;20371;-87
2021/10/08 06:01:50;;;;;;;7.75;3.65;;;10.90;99.90;;;;;;6183430;23;20032;-87
2021/10/08 06:04:15;;;;;;;12.15;3.55;;;10.90;99.90;;;;;;6182874;23;20008;-87
2021/10/08 06:06:41;;;;;;;7.45;3.10;;;10.90;99.90;;;;;;6182985;23;20024;-86
2021/10/08 06:09:07;;;;;;;11.63;3.70;;;10.90;99.90;;;;;;6182907;23;20027;-87
2021/10/08 06:11:33;;;;;;;10.00;4.10;;;10.80;99.90;;;;;;6182425;23;20013;-87
2021/10/08 06:13:59;;;;;;;9.75;3.97;;;10.80;99.90;;;;;;6183450;23;20435;-87
2021/10/08 06:16:25;;;;;;;9.65;3.58;;;10.80;99.90;;;;;;6182816;23;20004;-87
2021/10/08 06:18:50;;;;;;;8.98;3.60;;;10.80;99.90;;;;;;6182595;23;20001;-87
2021/10/08 06:21:16;;;;;;;11.43;3.80;;;10.80;99.90;;;;;;6182594;23;20055;-88
2021/10/08 06:23:42;;;;;;;12.93;3.78;;;10.80;99.90;;;;;;6183084;23;20080;-88
2021/10/08 06:26:08;;;;;;;9.68;3.60;;;10.80;99.90;;;;;;6182963;23;20005;-89
2021/10/08 06:28:34;;;;;;;6.55;4.25;;;10.80;99.90;;;;;;6156540;23;20005;-89
2021/10/08 06:31:00;;;;;;;9.73;3.75;;;10.80;99.90;;;;;;6183054;23;20027;-89
2021/10/08 06:33:26;;;;;;;10.52;4.03;;;10.90;99.90;;;;;;6183096;23;20067;-89
2021/10/08 06:35:52;;;;;;;10.55;3.95;;;10.90;99.90;;;;;;6183055;23;20005;-88
2021/10/08 06:38:18;;;;;;;9.20;3.85;;;10.90;99.90;;;;;;6183192;23;20009;-89
2021/10/08 06:40:44;;;;;;;10.73;4.32;;;11.00;99.90;;;;;;6182935;23;20435;-89
2021/10/08 06:43:10;;;;;;;8.77;3.90;;;11.00;99.90;;;;;;6157006;23;20083;-90
2021/10/08 06:45:36;;;;;;;16.05;4.57;;;11.00;99.90;;;;;;6182921;23;20450;-90
2021/10/08 06:48:03;;;;;;;11.65;4.57;;;11.10;99.90;;;;;;6156424;23;20025;-90
2021/10/08 06:50:29;;;;;;;15.70;4.03;;;11.10;99.90;;;;;;6183624;23;20080;-87
2021/10/08 06:52:55;;;;;;;10.82;4.10;;;11.20;99.90;;;;;;6156292;23;20036;-87
2021/10/08 06:55:21;;;;;;;12.45;4.95;;;11.10;99.90;;;;;;6156540;23;20018;-87
2021/10/08 06:57:47;;;;;;;12.52;4.47;;;11.20;99.90;;;;;;6183075;23;20004;-87
2021/10/08 07:00:14;;;;;;;13.23;4.50;;;11.20;99.90;;;;;;6182781;23;20001;-87
2021/10/08 07:02:46;;;;;;;12.48;4.40;;;11.20;99.90;;;;;;6156765;23;20331;-88
2021/10/08 07:05:12;;;;;;;9.63;4.50;;;11.20;99.90;;;;;;6156737;23;20180;-88
2021/10/08 07:07:37;;;;;;;10.35;4.03;;;11.20;99.90;;;;;;6183224;23;20123;-89
2021/10/08 07:10:03;;;;;;;14.32;5.10;;;11.30;99.90;;;;;;6156196;23;20027;-89
2021/10/08 07:12:29;;;;;;;13.35;4.70;;;11.40;99.90;;;;;;6182714;23;20035;-89
2021/10/08 07:14:55;;;;;;;10.80;4.47;;;11.40;99.90;;;;;;6156612;23;20070;-90
2021/10/08 07:17:20;;;;;;;14.02;4.72;;;11.40;99.90;;;;;;6156377;23;20025;-90
2021/10/08 07:19:46;;;;;;;10.88;4.05;;;11.40;99.90;;;;;;6183117;23;20036;-90
2021/10/08 07:22:12;;;;;;;10.20;3.88;;;11.30;99.90;;;;;;6156275;23;20006;-90
2021/10/08 07:24:37;;;;;;;15.25;5.53;;;11.50;99.90;;;;;;6182810;23;20037;-90
2021/10/08 07:27:06;;;;;;;13.85;5.68;;;11.60;99.90;;;;;;6182722;23;19997;-90
2021/10/08 07:29:32;;;;;;;13.68;5.40;;;11.70;99.90;;;;;;6156377;23;20404;-90
2021/10/08 07:31:58;;;;;;;16.95;6.93;;;11.70;99.90;;;;;;6182535;23;20044;-89
2021/10/08 07:34:23;;;;;;;15.00;6.60;;;11.80;99.90;;;;;;6156089;23;20040;-90
2021/10/08 07:36:49;;;;;;;14.25;5.93;;;12.00;99.90;;;;;;6182806;23;20000;-89
2021/10/08 07:39:14;;;;;;;17.33;6.38;;;12.10;99.90;;;;;;6156574;23;20005;-90
2021/10/08 07:41:40;;;;;;;16.15;6.80;;;12.10;99.90;;;;;;6182247;23;20001;-90
2021/10/08 07:44:06;;;;;;;10.30;5.35;;;12.20;99.90;;;;;;6156405;23;20005;-90
2021/10/08 07:46:32;;;;;;;12.07;4.65;;;12.20;99.90;;;;;;6182303;23;20008;-89
2021/10/08 07:48:57;;;;;;;9.88;5.00;;;12.30;99.90;;;;;;6182153;23;20044;-89
2021/10/08 07:51:23;;;;;;;10.65;4.57;;;12.40;99.90;;;;;;6182531;23;20007;-89
2021/10/08 07:53:49;;;;;;;10.48;5.07;;;12.40;99.90;;;;;;6156044;23;20017;-89
2021/10/08 07:56:16;;;;;;;11.40;5.07;;;12.50;99.90;;;;;;6156317;23;20390;-89
2021/10/08 07:58:42;;;;;;;11.23;4.60;;;12.50;99.90;;;;;;6182674;23;20100;-89
2021/10/08 08:01:08;;;;;;;12.48;5.20;;;12.60;99.90;;;;;;6155988;23;20438;-89
2021/10/08 08:03:34;;;;;;;14.70;5.45;;;12.70;99.90;;;;;;6155612;23;20011;-89
2021/10/08 08:05:59;;;;;;;16.02;5.15;;;12.90;99.90;;;;;;6182332;23;20385;-89
2021/10/08 08:08:25;;;;;;;14.80;5.88;;;13.00;99.90;;;;;;6182392;23;20008;-89
2021/10/08 08:10:52;;;;;;;12.75;4.70;;;13.10;99.90;;;;;;6181895;23;20075;-89
2021/10/08 08:13:18;;;;;;;10.05;5.10;;;13.10;99.90;;;;;;6155673;23;20098;-89
2021/10/08 08:15:43;;;;;;;9.50;4.97;;;13.10;99.90;;;;;;6181961;23;20001;-88
2021/10/08 08:18:09;;;;;;;11.82;4.90;;;13.10;99.90;;;;;;6182511;23;20328;-88
2021/10/08 08:20:35;;;;;;;12.30;5.28;;;13.20;99.90;;;;;;6182126;23;20308;-88
2021/10/08 08:23:00;;;;;;;8.05;4.72;;;13.30;99.90;;;;;;6182167;23;20055;-88
2021/10/08 08:25:26;;;;;;;11.18;4.97;;;13.30;99.90;;;;;;6155686;23;19997;-88
2021/10/08 08:27:52;;;;;;;9.00;5.07;;;13.40;99.90;;;;;;6182022;23;20001;-89
2021/10/08 08:30:17;;;;;;;11.20;4.57;;;13.50;99.90;;;;;;6182262;23;20008;-89
2021/10/08 08:32:43;;;;;;;13.63;5.32;;;13.70;99.90;;;;;;6155736;23;20005;-89
2021/10/08 08:35:09;;;;;;;15.48;5.00;;;13.70;99.90;;;;;;6155778;23;20096;-89
2021/10/08 08:37:35;;;;;;;11.80;4.97;;;13.80;99.90;;;;;;6182677;23;20009;-87
2021/10/08 08:40:05;;;;;;;11.43;5.38;;;13.90;99.90;;;;;;6182416;23;20005;-89
2021/10/08 08:42:31;;;;;;;8.95;5.47;;;14.00;99.90;;;;;;6181575;23;20008;-88
2021/10/08 08:44:57;;;;;;;13.13;5.63;;;14.10;99.90;;;;;;6182163;23;20029;-88
2021/10/08 08:47:23;;;;;;;10.13;5.28;;;14.10;99.90;;;;;;6181845;23;20004;-88
2021/10/08 08:49:50;;;;;;;8.95;4.85;;;14.20;99.90;;;;;;6182627;23;20386;-89
2021/10/08 08:52:17;;;;;;;8.52;5.43;;;14.30;99.90;;;;;;6182144;23;20072;-88
2021/10/08 08:54:44;;;;;;;12.52;4.97;;;14.50;99.90;;;;;;6155498;23;20040;-89
2021/10/08 08:57:14;;;;;;;12.05;5.15;;;14.50;99.90;;;;;;6182344;23;20438;-88
2021/10/08 09:00:12;;;;;;;9.50;5.00;;;14.70;99.90;;;;;;6181894;23;20005;-88
2021/10/08 09:02:41;;;;;;;8.60;4.72;;;14.80;99.90;;;;;;6181930;23;20029;-88
2021/10/08 09:05:34;;;;;;;10.77;5.55;;;14.70;99.90;;;;;;6182058;23;20005;-89
2021/10/08 09:08:06;;;;;;;6.00;4.22;;;14.80;99.90;;;;;;6169568;23;20009;-89
2021/10/08 09:10:34;;;;;;;7.70;4.65;;;14.90;99.90;;;;;;6155527;23;20354;-88
2021/10/08 09:12:59;;;;;;;6.72;4.72;;;15.00;99.90;;;;;;6182164;23;20009;-88
2021/10/08 09:15:27;;;;;;;11.20;4.40;;;15.10;99.90;;;;;;6182687;23;19997;-89
2021/10/08 09:18:10;;;;;;;9.48;4.70;;;15.20;99.90;;;;;;6183914;23;20001;-88
2021/10/08 09:20:38;;;;;;;6.68;4.53;;;15.30;99.90;;;;;;6183841;23;19998;-88
2021/10/08 09:23:05;;;;;;;9.75;4.78;;;15.40;99.90;;;;;;6183826;23;20012;-88
2021/10/08 09:25:36;;;;;;;7.45;3.95;;;15.50;99.90;;;;;;6183879;23;20008;-88
2021/10/08 09:28:09;;;;;;;6.53;4.50;;;15.60;99.90;;;;;;6157293;23;20071;-88
2021/10/08 09:30:43;;;;;;;9.43;4.25;;;15.70;99.90;;;;;;6183619;23;20004;-88
2021/10/08 09:33:29;;;;;;;9.65;4.03;;;15.80;99.90;;;;;;6183601;23;20329;-88
2021/10/08 09:35:56;;;;;;;7.30;4.85;;;15.90;99.90;;;;;;6180888;23;20063;-87
2021/10/08 09:38:23;;;;;;;5.78;3.72;;;15.90;99.90;;;;;;6157506;23;20001;-88
2021/10/08 09:40:51;;;;;;;7.50;4.13;;;16.00;99.90;;;;;;6183625;23;20023;-86
2021/10/08 09:43:23;;;;;;;5.18;4.00;;;16.00;99.90;;;;;;6183139;23;20001;-86
2021/10/08 09:45:59;;;;;;;5.82;3.20;;;16.10;99.90;;;;;;6183633;23;19997;-86
2021/10/08 09:48:41;;;;;;;4.55;3.60;;;16.20;99.90;;;;;;6156623;23;20024;-86
2021/10/08 09:51:12;;;;;;;6.05;3.47;;;16.20;99.90;;;;;;6183614;23;20007;-86
2021/10/08 09:53:55;;;;;;;6.40;3.88;;;16.30;99.90;;;;;;6183670;23;20020;-86
2021/10/08 09:56:41;;;;;;;5.35;3.20;;;16.40;99.90;;;;;;6183348;23;20001;-86
2021/10/08 09:59:12;;;;;;;6.38;3.22;;;16.50;99.90;;;;;;6183661;23;20001;-86
2021/10/08 10:01:40;;;;;;;5.70;3.58;;;16.70;99.90;;;;;;6183405;23;20088;-86
2021/10/08 10:04:11;;;;;;;5.40;3.78;;;16.70;99.90;;;;;;6183327;23;20085;-87
2021/10/08 10:06:38;;;;;;;6.53;3.75;;;16.70;99.90;;;;;;6156816;23;20001;-86
2021/10/08 10:09:07;;;;;;;8.10;3.90;;;16.70;99.90;;;;;;6183682;23;20055;-86
2021/10/08 10:11:33;;;;;;;5.00;3.55;;;16.80;99.90;;;;;;6182816;23;20008;-86
2021/10/08 10:14:00;;;;;;;5.35;3.75;;;16.80;99.90;;;;;;6183015;23;20049;-86
2021/10/08 10:16:28;;;;;;;6.30;3.72;;;16.80;99.90;;;;;;6183139;23;20001;-86
2021/10/08 10:18:56;;;;;;;5.60;3.78;;;16.90;99.90;;;;;;6183688;23;20008;-85
2021/10/08 10:21:27;;;;;;;6.22;3.47;;;17.00;99.90;;;;;;6156836;23;20001;-85
2021/10/08 10:23:59;;;;;;;11.07;3.60;;;17.10;99.90;;;;;;6183448;23;20327;-84
2021/10/08 10:26:28;;;;;;;5.22;3.42;;;17.20;99.90;;;;;;6155968;23;20378;-86
2021/10/08 10:28:55;;;;;;;4.80;3.50;;;17.30;99.90;;;;;;6182467;23;20067;-85
2021/10/08 10:31:21;;;;;;;8.02;3.65;;;17.30;99.90;;;;;;6182781;23;20032;-85
2021/10/08 10:33:55;;;;;;;7.05;3.70;;;17.40;99.90;;;;;;6182376;23;20013;-85
2021/10/08 10:36:29;;;;;;;7.63;3.95;;;17.50;99.90;;;;;;6182661;23;20007;-87
2021/10/08 10:39:16;;;;;;;5.50;3.35;;;17.50;99.90;;;;;;6182898;23;20018;-86
2021/10/08 10:41:46;;;;;;;6.88;3.58;;;17.70;99.90;;;;;;6183124;23;20071;-87
2021/10/08 10:44:27;;;;;;;5.75;4.05;;;17.70;99.90;;;;;;6182869;23;19997;-87
2021/10/08 10:47:36;;;;;;;6.47;3.80;;;17.90;99.90;;;;;;6156018;23;20013;-84
2021/10/08 10:50:12;;;;;;;5.93;3.30;;;18.10;99.90;;;;;;6182634;23;20020;-85
2021/10/08 10:52:47;;;;;;;5.13;3.90;;;18.20;99.90;;;;;;6182328;23;20004;-84
2021/10/08 10:55:13;;;;;;;8.82;3.63;;;18.30;99.90;;;;;;6182737;23;19997;-87
2021/10/08 10:57:49;;;;;;;6.30;3.63;;;18.30;99.90;;;;;;6180846;23;20480;-86
2021/10/08 11:00:25;;;;;;;6.10;3.40;;;18.30;99.90;;;;;;6182426;23;20438;-86
2021/10/08 11:03:02;;;;;;;4.05;2.95;;;18.20;99.90;;;;;;6155665;23;20009;-86
2021/10/08 11:05:29;;;;;;;3.38;2.70;;;18.30;99.90;;;;;;6155809;23;20008;-86
2021/10/08 11:08:17;;;;;;;5.15;2.65;;;18.30;99.90;;;;;;6183082;23;20032;-86
2021/10/08 11:11:01;;;;;;;5.63;2.33;;;18.40;99.90;;;;;;6182687;23;20039;-86
2021/10/08 11:13:34;;;;;;;3.97;2.13;;;18.40;99.90;;;;;;6182426;23;20014;-86
2021/10/08 11:16:02;;;;;;;2.40;2.10;;;18.50;99.90;;;;;;6182409;23;20016;-86
2021/10/08 11:18:45;;;;;;;2.90;1.65;;;18.60;99.90;;;;;;6182545;23;19997;-86
2021/10/08 11:21:37;;;;;;;4.03;1.77;;;18.60;99.90;;;;;;6182523;23;20005;-86
2021/10/08 11:24:21;;;;;;;4.35;2.00;;;18.60;99.90;;;;;;6139470;23;20012;-86
2021/10/08 11:26:52;;;;;;;4.30;2.05;;;18.60;99.90;;;;;;6179637;23;20276;-86
2021/10/08 11:29:17;;;;;;;3.67;1.80;;;18.60;99.90;;;;;;6182512;23;20001;-86
2021/10/08 11:31:43;;;;;;;5.57;1.70;;;18.60;99.90;;;;;;6182486;23;20008;-86
2021/10/08 11:34:13;;;;;;;2.35;1.40;;;18.70;99.90;;;;;;6155531;23;20088;-86
2021/10/08 11:36:39;;;;;;;2.72;1.70;;;18.80;99.90;;;;;;6156068;23;20088;-86
2021/10/08 11:39:09;;;;;;;3.95;1.58;;;18.90;99.90;;;;;;6182758;23;20024;-86
2021/10/08 11:41:37;;;;;;;3.15;1.30;;;18.90;99.90;;;;;;6182500;23;20315;-86
2021/10/08 11:44:20;;;;;;;2.72;1.40;;;19.10;99.90;;;;;;6182332;23;20004;-85
2021/10/08 11:52:01;;;;;;;4.68;1.50;;;19.50;99.90;;;;;;6182654;23;20007;-86
2021/10/08 11:54:27;;;;;;;3.17;1.10;;;19.50;99.90;;;;;;6182131;23;20096;-87
2021/10/08 11:57:01;;;;;;;2.70;1.35;;;19.50;99.90;;;;;;6182339;23;20055;-87
2021/10/08 11:59:27;;;;;;;3.08;1.42;;;19.60;99.90;;;;;;6182283;23;20371;-87
2021/10/08 12:02:14;;;;;;;3.28;1.00;;;19.80;99.50;;;;;;6181913;23;20040;-87
2021/10/08 12:04:57;;;;;;;3.35;1.10;;;19.90;99.30;;;;;;6181716;23;20481;-86
2021/10/08 12:07:23;;;;;;;2.85;0.93;;;19.90;98.80;;;;;;6155661;23;20005;-87
2021/10/08 12:10:10;;;;;;;4.93;1.20;;;19.90;98.80;;;;;;6182365;23;20060;-87
2021/10/08 12:12:36;;;;;;;3.03;1.00;;;20.00;98.90;;;;;;6182630;23;20229;-87
2021/10/08 12:15:02;;;;;;;1.92;1.10;;;20.10;99.20;;;;;;6182168;23;20012;-87
2021/10/08 12:17:28;;;;;;;2.03;1.00;;;20.10;98.20;;;;;;6182739;23;20007;-87
2021/10/08 12:19:54;;;;;;;2.42;1.02;;;20.00;98.90;;;;;;6182000;23;20012;-86
2021/10/08 12:22:24;;;;;;;1.45;0.93;;;20.10;98.50;;;;;;6182089;23;20001;-87
2021/10/08 12:24:51;;;;;;;1.73;0.90;;;20.30;97.50;;;;;;6182644;23;19997;-87
2021/10/08 12:27:17;;;;;;;1.38;0.77;;;20.60;97.70;;;;;;6181941;23;20008;-87
2021/10/08 12:29:50;;;;;;;2.78;1.02;;;20.60;96.50;;;;;;6155499;23;20001;-87
2021/10/08 12:32:17;;;;;;;2.60;1.10;;;20.60;97.30;;;;;;6181894;23;20584;-88
2021/10/08 12:34:54;;;;;;;3.70;0.93;;;20.80;96.00;;;;;;6181977;23;20008;-87
2021/10/08 12:37:33;;;;;;;0.90;0.70;;;20.80;96.30;;;;;;6181697;23;20385;-87
2021/10/08 12:40:11;;;;;;;3.15;1.10;;;20.70;97.40;;;;;;6181863;23;20016;-87
2021/10/08 12:42:52;;;;;;;2.88;1.08;;;20.70;96.00;;;;;;6181863;23;20023;-86
2021/10/08 12:45:36;;;;;;;2.58;0.90;;;20.90;96.50;;;;;;6181841;23;20222;-89
2021/10/08 12:48:04;;;;;;;1.90;1.25;;;20.90;96.10;;;;;;6181420;23;20024;-88
2021/10/08 12:50:32;;;;;;;2.60;1.00;;;21.10;96.60;;;;;;6182755;23;20024;-88
2021/10/08 12:52:58;;;;;;;2.60;1.00;;;21.20;95.90;;;;;;6183629;23;20001;-87
2021/10/08 12:55:30;;;;;;;2.55;1.10;;;21.30;96.30;;;;;;6184184;23;20032;-88
2021/10/08 12:58:09;;;;;;;2.10;1.00;;;21.30;95.70;;;;;;6183963;23;20084;-88